Sunbeam, Idaho
Current Conditions -  °F | °C
As of 5:55 PM on Wednesday 22 Oct 2014 (Local Time) from KLLJ Reporting Station
Broken Clouds Broken Clouds  
Wind Chill: 53°   Ceiling: 7000
Heat Index: 53°   Visibility: 10mi
Dew Point: 31°   Wind: 8mph
Humidity: 43%   Direction: 150°SSE
Pressure: 30.07"   Gusts: NA
Location:  44.3379°N, 114.824°W
Report Text: KLLJ 222355Z AUTO 15007KT 10SM BKN070 12/M01 A3007 RMK AO2 SLP174 T01171006 10133 20061 55009
Loading
Personal Weather Stations






























Interactive Weather Map New forecast layout! Learn more

10-Day Weather Forecast

Advertisements
Track Severe Weather on mobile